createdAt,value
2017-01-27T00:00:56.381Z,0
2017-01-27T00:02:09.629Z,0
2017-01-27T00:03:22.655Z,0
2017-01-27T00:04:35.313Z,0
2017-01-27T00:05:48.341Z,0
2017-01-27T00:07:01.376Z,0
2017-01-27T00:08:14.009Z,0
2017-01-27T00:09:26.644Z,0
2017-01-27T00:10:39.668Z,0
2017-01-27T00:11:52.734Z,0
2017-01-27T00:13:05.380Z,0
2017-01-27T00:14:18.409Z,0
2017-01-27T00:15:31.450Z,0
2017-01-27T00:16:44.504Z,0
2017-01-27T00:17:57.545Z,0
2017-01-27T00:19:10.570Z,0
2017-01-27T00:20:23.654Z,0
2017-01-27T00:21:36.679Z,0
2017-01-27T00:22:49.728Z,0
2017-01-27T00:24:01.844Z,0
2017-01-27T00:25:14.449Z,0
2017-01-27T00:26:27.092Z,0
2017-01-27T00:27:40.129Z,0
2017-01-27T00:28:53.152Z,0
2017-01-27T00:30:06.155Z,0
2017-01-27T00:31:18.428Z,0
2017-01-27T00:32:31.450Z,0
2017-01-27T00:33:44.492Z,0
2017-01-27T00:34:57.491Z,0
2017-01-27T00:36:10.535Z,0
2017-01-27T00:37:22.390Z,0
2017-01-27T00:38:35.392Z,0
2017-01-27T00:39:48.399Z,0
2017-01-27T00:41:01.017Z,0
2017-01-27T00:42:13.617Z,0
2017-01-27T00:43:26.256Z,0
2017-01-27T00:44:39.311Z,0
2017-01-27T00:45:52.344Z,0
2017-01-27T00:47:05.376Z,0
2017-01-27T00:48:18.422Z,0
2017-01-27T00:49:31.463Z,0
2017-01-27T00:50:44.468Z,0
2017-01-27T00:51:57.129Z,0
2017-01-27T00:53:10.154Z,0
2017-01-27T00:54:23.193Z,0
2017-01-27T00:55:36.247Z,0
2017-01-27T00:56:48.887Z,0
2017-01-27T00:58:01.928Z,0
2017-01-27T00:59:14.948Z,0
2017-01-27T01:00:27.981Z,0
2017-01-27T01:01:41.014Z,0
2017-01-27T01:02:54.017Z,0
2017-01-27T01:04:06.670Z,0
2017-01-27T01:05:18.931Z,0
2017-01-27T01:06:31.956Z,0
2017-01-27T01:07:44.246Z,0
2017-01-27T01:08:57.294Z,0
2017-01-27T01:10:10.344Z,0
2017-01-27T01:11:22.985Z,0
2017-01-27T01:12:35.636Z,0
2017-01-27T01:13:48.659Z,0
2017-01-27T01:15:01.358Z,0
2017-01-27T01:16:14.023Z,0
2017-01-27T01:17:27.040Z,0
2017-01-27T01:18:39.311Z,0
2017-01-27T01:19:52.341Z,0
2017-01-27T01:21:05.378Z,0
2017-01-27T01:22:18.402Z,0
2017-01-27T01:23:31.399Z,0
2017-01-27T01:24:44.418Z,0
2017-01-27T01:25:57.043Z,0
2017-01-27T01:27:10.081Z,0
2017-01-27T01:28:22.350Z,0
2017-01-27T01:29:35.370Z,0
2017-01-27T01:30:48.392Z,0
2017-01-27T01:32:01.049Z,0
2017-01-27T01:33:14.076Z,0
2017-01-27T01:34:27.138Z,0
2017-01-27T01:35:40.134Z,0
2017-01-27T01:36:53.183Z,0
2017-01-27T01:38:06.246Z,0
2017-01-27T01:39:18.124Z,0
2017-01-27T01:40:30.392Z,0
2017-01-27T01:41:43.017Z,0
2017-01-27T01:42:56.058Z,0
2017-01-27T01:44:09.059Z,0
2017-01-27T01:45:21.353Z,0
2017-01-27T01:46:34.377Z,0
2017-01-27T01:47:47.396Z,0
2017-01-27T01:49:00.013Z,0
2017-01-27T01:50:13.058Z,0
2017-01-27T01:51:26.077Z,0
2017-01-27T01:52:39.105Z,0
2017-01-27T01:53:52.127Z,0
2017-01-27T01:55:04.775Z,0
2017-01-27T01:56:17.818Z,0
2017-01-27T01:57:30.488Z,0
2017-01-27T01:58:43.559Z,0
2017-01-27T01:59:56.594Z,0
2017-01-27T02:01:08.844Z,0
2017-01-27T02:02:22.146Z,0
2017-01-27T02:03:35.156Z,0
2017-01-27T02:04:48.186Z,0
2017-01-27T02:06:00.809Z,0
2017-01-27T02:07:13.481Z,0
2017-01-27T02:08:26.147Z,0
2017-01-27T02:09:38.790Z,0
2017-01-27T02:10:51.842Z,0
2017-01-27T02:12:04.856Z,0
2017-01-27T02:13:17.881Z,0
2017-01-27T02:14:30.521Z,0
2017-01-27T02:15:43.544Z,0
2017-01-27T02:16:56.215Z,0
2017-01-27T02:18:09.261Z,0
2017-01-27T02:19:22.295Z,0
2017-01-27T02:20:34.933Z,0
2017-01-27T02:21:47.578Z,0
2017-01-27T02:23:00.602Z,0
2017-01-27T02:24:13.275Z,0
2017-01-27T02:25:26.315Z,0
2017-01-27T02:26:39.328Z,0
2017-01-27T02:27:52.335Z,0
2017-01-27T02:29:05.356Z,0
2017-01-27T02:30:18.416Z,0
2017-01-27T02:31:31.073Z,0
2017-01-27T02:32:44.108Z,0
2017-01-27T02:33:57.133Z,0
2017-01-27T02:35:10.407Z,0
2017-01-27T02:36:23.432Z,0
2017-01-27T02:37:36.471Z,0
2017-01-27T02:38:49.167Z,0
2017-01-27T02:40:02.221Z,0
2017-01-27T02:41:14.862Z,0
2017-01-27T02:42:27.867Z,0
2017-01-27T02:43:40.911Z,0
2017-01-27T02:44:53.556Z,0
2017-01-27T02:46:06.589Z,0
2017-01-27T02:47:19.245Z,0
2017-01-27T02:48:31.915Z,0
2017-01-27T02:49:44.555Z,0
2017-01-27T02:50:57.186Z,0
2017-01-27T02:52:09.831Z,0
2017-01-27T02:53:22.447Z,0
2017-01-27T02:54:35.495Z,0
2017-01-27T02:55:48.544Z,0
2017-01-27T02:57:01.582Z,0
2017-01-27T02:58:14.633Z,0
2017-01-27T02:59:27.668Z,0
2017-01-27T03:00:40.717Z,0
2017-01-27T03:01:53.746Z,0
2017-01-27T03:03:06.781Z,0
2017-01-27T03:04:19.833Z,0
2017-01-27T03:05:32.472Z,0
2017-01-27T03:06:45.494Z,0
2017-01-27T03:07:58.516Z,0
2017-01-27T03:09:11.538Z,0
2017-01-27T03:10:24.168Z,0
2017-01-27T03:11:37.206Z,0
2017-01-27T03:12:50.228Z,0
2017-01-27T03:14:03.269Z,0
2017-01-27T03:15:16.300Z,0
2017-01-27T03:16:28.936Z,0
2017-01-27T03:17:41.990Z,0
2017-01-27T03:18:55.034Z,0
2017-01-27T03:20:07.681Z,0
2017-01-27T03:21:20.323Z,0
2017-01-27T03:22:33.374Z,0
2017-01-27T03:23:45.621Z,0
2017-01-27T03:24:58.640Z,0
2017-01-27T03:26:11.307Z,0
2017-01-27T03:27:24.359Z,0
2017-01-27T03:28:36.999Z,0
2017-01-27T03:29:50.303Z,0
2017-01-27T03:31:03.398Z,0
2017-01-27T03:32:15.269Z,0
2017-01-27T03:33:28.311Z,0
2017-01-27T03:34:40.930Z,0
2017-01-27T03:35:53.956Z,0
2017-01-27T03:37:06.591Z,0
2017-01-27T03:38:19.218Z,0
2017-01-27T03:39:31.833Z,0
2017-01-27T03:40:44.837Z,0
2017-01-27T03:41:57.083Z,0
2017-01-27T03:43:09.738Z,0
2017-01-27T03:44:22.807Z,0
2017-01-27T03:45:35.448Z,0
2017-01-27T03:46:48.102Z,0
2017-01-27T03:48:01.166Z,0
2017-01-27T03:49:13.826Z,0
2017-01-27T03:50:26.457Z,0
2017-01-27T03:51:39.503Z,0
2017-01-27T03:52:52.150Z,0
2017-01-27T03:54:04.395Z,0
2017-01-27T03:55:17.016Z,0
2017-01-27T03:56:29.290Z,0
2017-01-27T03:57:42.308Z,0
2017-01-27T03:58:54.600Z,0
2017-01-27T04:00:07.595Z,0
2017-01-27T04:01:19.833Z,0
2017-01-27T04:02:32.087Z,0
2017-01-27T04:03:44.707Z,0
2017-01-27T04:04:57.729Z,0
2017-01-27T04:06:10.746Z,0
2017-01-27T04:07:23.762Z,0
2017-01-27T04:08:36.785Z,0
2017-01-27T04:09:49.056Z,0
2017-01-27T04:11:02.063Z,0
2017-01-27T04:12:15.123Z,0
2017-01-27T04:13:28.132Z,0
2017-01-27T04:14:41.147Z,0
2017-01-27T04:15:54.188Z,0
2017-01-27T04:17:07.231Z,0
2017-01-27T04:18:20.251Z,0
2017-01-27T04:19:33.282Z,0
2017-01-27T04:20:45.930Z,0
2017-01-27T04:21:58.947Z,0
2017-01-27T04:23:11.996Z,0
2017-01-27T04:24:24.630Z,0
2017-01-27T04:25:37.663Z,0
2017-01-27T04:26:50.731Z,0
2017-01-27T04:28:03.751Z,0
2017-01-27T04:29:16.771Z,0
2017-01-27T04:30:29.394Z,0
2017-01-27T04:31:42.414Z,0
2017-01-27T04:32:55.036Z,0
2017-01-27T04:34:08.052Z,0
2017-01-27T04:35:20.703Z,0
2017-01-27T04:36:33.324Z,0
2017-01-27T04:37:46.349Z,0
2017-01-27T04:38:59.381Z,0
2017-01-27T04:40:12.002Z,0
2017-01-27T04:41:24.659Z,0
2017-01-27T04:42:37.676Z,0
2017-01-27T04:43:50.701Z,0
2017-01-27T04:45:03.350Z,0
2017-01-27T04:46:16.273Z,0
2017-01-27T04:47:29.307Z,0
2017-01-27T04:48:41.975Z,0
2017-01-27T04:49:55.006Z,0
2017-01-27T04:51:08.029Z,0
2017-01-27T04:52:20.690Z,0
2017-01-27T04:53:33.712Z,0
2017-01-27T04:54:46.738Z,0
2017-01-27T04:55:59.752Z,0
2017-01-27T04:57:12.770Z,0
2017-01-27T04:58:25.765Z,0
2017-01-27T04:59:38.387Z,0
2017-01-27T05:00:51.412Z,0
2017-01-27T05:02:03.683Z,0
2017-01-27T05:03:16.333Z,0
2017-01-27T05:04:29.353Z,0
2017-01-27T05:05:42.353Z,0
2017-01-27T05:06:55.041Z,0
2017-01-27T05:08:08.108Z,0
2017-01-27T05:09:20.362Z,0
2017-01-27T05:10:33.376Z,0
2017-01-27T05:11:46.384Z,0
2017-01-27T05:12:59.421Z,0
2017-01-27T05:14:12.074Z,0
2017-01-27T05:15:25.119Z,0
2017-01-27T05:16:37.762Z,0
2017-01-27T05:17:50.779Z,0
2017-01-27T05:19:02.684Z,0
2017-01-27T05:20:15.721Z,0
2017-01-27T05:21:28.764Z,0
2017-01-27T05:22:41.809Z,0
2017-01-27T05:23:54.814Z,0
2017-01-27T05:25:07.837Z,0
2017-01-27T05:26:20.481Z,0
2017-01-27T05:27:33.500Z,0
2017-01-27T05:28:46.164Z,0
2017-01-27T05:29:59.445Z,0
2017-01-27T05:31:12.479Z,0
2017-01-27T05:32:25.512Z,0
2017-01-27T05:33:38.547Z,0
2017-01-27T05:34:51.177Z,0
2017-01-27T05:36:04.239Z,0
2017-01-27T05:37:16.871Z,0
2017-01-27T05:38:29.916Z,0
2017-01-27T05:39:42.951Z,0
2017-01-27T05:40:55.608Z,0
2017-01-27T05:42:08.253Z,0
2017-01-27T05:43:21.288Z,0
2017-01-27T05:44:34.309Z,0
2017-01-27T05:45:47.308Z,0
2017-01-27T05:47:00.327Z,0
2017-01-27T05:48:13.355Z,0
2017-01-27T05:49:26.403Z,0
2017-01-27T05:50:39.038Z,0
2017-01-27T05:51:52.094Z,0
2017-01-27T05:53:05.129Z,0
2017-01-27T05:54:18.154Z,0
2017-01-27T05:55:31.196Z,0
2017-01-27T05:56:44.223Z,0
2017-01-27T05:57:57.245Z,0
2017-01-27T05:59:09.513Z,0
2017-01-27T06:00:22.159Z,0
2017-01-27T06:01:35.236Z,0
2017-01-27T06:02:48.275Z,0
2017-01-27T06:04:01.293Z,0
2017-01-27T06:05:14.316Z,0
2017-01-27T06:06:26.942Z,0
2017-01-27T06:07:39.991Z,0
2017-01-27T06:08:53.026Z,0
2017-01-27T06:10:06.035Z,0
2017-01-27T06:11:18.704Z,0
2017-01-27T06:12:31.346Z,0
2017-01-27T06:13:44.346Z,0
2017-01-27T06:14:56.983Z,0
2017-01-27T06:16:09.630Z,0
2017-01-27T06:17:22.305Z,0
2017-01-27T06:18:35.326Z,0
2017-01-27T06:19:48.367Z,0
2017-01-27T06:21:01.007Z,0
2017-01-27T06:22:13.258Z,0
2017-01-27T06:23:25.884Z,0
2017-01-27T06:24:38.905Z,0
2017-01-27T06:25:51.526Z,0
2017-01-27T06:27:04.169Z,0
2017-01-27T06:28:16.817Z,0
2017-01-27T06:29:29.831Z,0
2017-01-27T06:30:42.852Z,0
2017-01-27T06:31:55.882Z,0
2017-01-27T06:33:08.927Z,0
2017-01-27T06:34:21.589Z,0
2017-01-27T06:35:34.245Z,0
2017-01-27T06:36:47.279Z,0
2017-01-27T06:37:59.531Z,0
2017-01-27T06:39:12.212Z,0
2017-01-27T06:40:24.448Z,0
2017-01-27T06:41:37.491Z,0
2017-01-27T06:42:50.525Z,0
2017-01-27T06:44:03.564Z,0
2017-01-27T06:45:15.810Z,5
2017-01-27T06:46:28.852Z,5
2017-01-27T06:47:41.894Z,5
2017-01-27T06:48:54.918Z,5
2017-01-27T06:50:07.172Z,5
2017-01-27T06:51:19.443Z,10
2017-01-27T06:52:32.118Z,10
2017-01-27T06:53:45.124Z,10
2017-01-27T06:54:58.118Z,10
2017-01-27T06:56:10.765Z,15
2017-01-27T06:57:23.390Z,15
2017-01-27T06:58:36.414Z,15
2017-01-27T06:59:49.440Z,20
2017-01-27T07:01:02.456Z,20
2017-01-27T07:02:15.082Z,25
2017-01-27T07:03:28.116Z,25
2017-01-27T07:04:40.743Z,25
2017-01-27T07:05:53.756Z,30
2017-01-27T07:07:06.412Z,30
2017-01-27T07:08:18.285Z,35
2017-01-27T07:09:31.344Z,35
2017-01-27T07:10:44.376Z,35
2017-01-27T07:11:56.993Z,40
2017-01-27T07:13:09.635Z,40
2017-01-27T07:14:22.689Z,45
2017-01-27T07:15:35.699Z,45
2017-01-27T07:16:48.720Z,50
2017-01-27T07:18:01.340Z,50
2017-01-27T07:19:14.374Z,55
2017-01-27T07:20:27.393Z,55
2017-01-27T07:21:40.011Z,60
2017-01-27T07:22:53.049Z,60
2017-01-27T07:24:05.682Z,65
2017-01-27T07:25:18.322Z,65
2017-01-27T07:26:31.340Z,65
2017-01-27T07:27:44.366Z,70
2017-01-27T07:28:57.006Z,70
2017-01-27T07:30:09.685Z,75
2017-01-27T07:31:22.363Z,75
2017-01-27T07:32:35.003Z,80
2017-01-27T07:33:48.022Z,80
2017-01-27T07:35:01.064Z,85
2017-01-27T07:36:14.077Z,85
2017-01-27T07:37:27.073Z,90
2017-01-27T07:38:39.719Z,90
2017-01-27T07:39:52.742Z,90
2017-01-27T07:41:05.014Z,95
2017-01-27T07:42:17.663Z,95
2017-01-27T07:43:30.702Z,100
2017-01-27T07:44:43.352Z,100
2017-01-27T07:45:56.410Z,100
2017-01-27T07:47:09.047Z,105
2017-01-27T07:48:21.668Z,105
2017-01-27T07:49:34.705Z,110
2017-01-27T07:50:47.729Z,110
2017-01-27T07:52:00.762Z,110
2017-01-27T07:53:12.669Z,115
2017-01-27T07:54:25.326Z,115
2017-01-27T07:55:37.944Z,120
2017-01-27T07:56:50.961Z,120
2017-01-27T07:58:03.987Z,120
2017-01-27T07:59:17.031Z,125
2017-01-27T08:00:29.660Z,125
2017-01-27T08:01:42.677Z,125
2017-01-27T08:02:55.715Z,130
2017-01-27T08:04:08.744Z,130
2017-01-27T08:05:20.979Z,130
2017-01-27T08:06:34.027Z,135
2017-01-27T08:07:46.658Z,135
2017-01-27T08:08:59.720Z,135
2017-01-27T08:10:12.364Z,140
2017-01-27T08:11:25.412Z,140
2017-01-27T08:12:38.083Z,140
2017-01-27T08:13:51.128Z,140
2017-01-27T08:15:03.771Z,145
2017-01-27T08:16:16.391Z,145
2017-01-27T08:17:29.396Z,150
2017-01-27T08:18:42.012Z,150
2017-01-27T08:19:55.029Z,150
2017-01-27T08:21:07.660Z,155
2017-01-27T08:22:20.703Z,155
2017-01-27T08:23:33.728Z,155
2017-01-27T08:24:46.762Z,155
2017-01-27T08:25:59.787Z,160
2017-01-27T08:27:12.833Z,160
2017-01-27T08:28:25.483Z,160
2017-01-27T08:29:37.754Z,160
2017-01-27T08:30:50.825Z,165
2017-01-27T08:32:03.845Z,165
2017-01-27T08:33:16.888Z,165
2017-01-27T08:34:29.879Z,165
2017-01-27T08:35:42.878Z,170
2017-01-27T08:36:55.499Z,170
2017-01-27T08:38:08.154Z,170
2017-01-27T08:39:21.213Z,170
2017-01-27T08:40:34.243Z,175
2017-01-27T08:41:46.866Z,175
2017-01-27T08:42:59.887Z,175
2017-01-27T08:44:12.533Z,175
2017-01-27T08:45:25.551Z,180
2017-01-27T08:46:38.614Z,180
2017-01-27T08:47:51.617Z,180
2017-01-27T08:49:04.658Z,180
2017-01-27T08:50:17.280Z,180
2017-01-27T08:51:30.301Z,185
2017-01-27T08:52:43.349Z,185
2017-01-27T08:53:56.374Z,185
2017-01-27T08:55:09.396Z,185
2017-01-27T08:56:22.405Z,185
2017-01-27T08:57:35.430Z,185
2017-01-27T08:58:48.431Z,185
2017-01-27T09:00:01.426Z,185
2017-01-27T09:01:13.305Z,185
2017-01-27T09:02:25.972Z,185
2017-01-27T09:03:38.621Z,185
2017-01-27T09:04:51.664Z,190
2017-01-27T09:06:04.309Z,190
2017-01-27T09:07:17.344Z,190
2017-01-27T09:08:29.599Z,190
2017-01-27T09:09:42.635Z,190
2017-01-27T09:10:55.672Z,195
2017-01-27T09:12:08.702Z,195
2017-01-27T09:13:21.360Z,195
2017-01-27T09:14:34.376Z,195
2017-01-27T09:15:47.399Z,195
2017-01-27T09:17:00.011Z,195
2017-01-27T09:18:13.043Z,195
2017-01-27T09:19:25.713Z,195
2017-01-27T09:20:38.760Z,200
2017-01-27T09:21:51.802Z,200
2017-01-27T09:23:04.066Z,200
2017-01-27T09:24:16.338Z,200
2017-01-27T09:25:28.963Z,200
2017-01-27T09:26:41.590Z,200
2017-01-27T09:27:54.226Z,200
2017-01-27T09:29:06.854Z,205
2017-01-27T09:30:19.465Z,205
2017-01-27T09:31:31.748Z,205
2017-01-27T09:32:44.769Z,205
2017-01-27T09:33:57.811Z,205
2017-01-27T09:35:10.453Z,205
2017-01-27T09:36:23.502Z,210
2017-01-27T09:37:36.172Z,210
2017-01-27T09:38:49.212Z,210
2017-01-27T09:40:02.236Z,210
2017-01-27T09:41:15.260Z,210
2017-01-27T09:42:27.888Z,215
2017-01-27T09:43:40.556Z,215
2017-01-27T09:44:53.602Z,215
2017-01-27T09:46:05.876Z,215
2017-01-27T09:47:18.537Z,215
2017-01-27T09:48:31.192Z,215
2017-01-27T09:49:44.225Z,220
2017-01-27T09:50:56.855Z,215
2017-01-27T09:52:09.485Z,215
2017-01-27T09:53:22.141Z,215
2017-01-27T09:54:35.167Z,215
2017-01-27T09:55:48.162Z,215
2017-01-27T09:57:00.803Z,220
2017-01-27T09:58:13.457Z,220
2017-01-27T09:59:26.493Z,215
2017-01-27T10:00:39.121Z,220
2017-01-27T10:01:51.763Z,220
2017-01-27T10:03:04.807Z,220
2017-01-27T10:04:17.475Z,225
2017-01-27T10:05:30.508Z,220
2017-01-27T10:06:43.517Z,220
2017-01-27T10:07:56.565Z,220
2017-01-27T10:09:08.444Z,225
2017-01-27T10:10:20.681Z,225
2017-01-27T10:11:33.683Z,225
2017-01-27T10:12:46.309Z,220
2017-01-27T10:13:58.951Z,225
2017-01-27T10:15:11.568Z,225
2017-01-27T10:16:24.221Z,225
2017-01-27T10:17:36.490Z,225
2017-01-27T10:18:49.768Z,225
2017-01-27T10:20:02.824Z,225
2017-01-27T10:21:15.497Z,225
2017-01-27T10:22:28.593Z,225
2017-01-27T10:23:41.618Z,225
2017-01-27T10:24:54.256Z,225
2017-01-27T10:26:06.887Z,225
2017-01-27T10:27:19.149Z,225
2017-01-27T10:28:32.180Z,225
2017-01-27T10:29:45.219Z,230
2017-01-27T10:30:57.869Z,230
2017-01-27T10:32:10.494Z,230
2017-01-27T10:33:22.787Z,230
2017-01-27T10:34:35.834Z,230
2017-01-27T10:35:48.876Z,230
2017-01-27T10:37:01.498Z,230
2017-01-27T10:38:14.141Z,230
2017-01-27T10:39:26.783Z,230
2017-01-27T10:40:40.053Z,230
2017-01-27T10:41:53.060Z,230
2017-01-27T10:43:06.087Z,230
2017-01-27T10:44:19.123Z,230
2017-01-27T10:45:31.762Z,230
2017-01-27T10:46:44.789Z,230
2017-01-27T10:47:57.435Z,230
2017-01-27T10:49:10.057Z,230
2017-01-27T10:50:22.702Z,235
2017-01-27T10:51:35.744Z,235
2017-01-27T10:52:48.795Z,235
2017-01-27T10:54:01.841Z,230
2017-01-27T10:55:14.460Z,235
2017-01-27T10:56:27.499Z,240
2017-01-27T10:57:40.547Z,240
2017-01-27T10:58:53.592Z,235
2017-01-27T11:00:06.240Z,235
2017-01-27T11:01:18.491Z,235
2017-01-27T11:02:31.540Z,235
2017-01-27T11:03:44.582Z,235
2017-01-27T11:04:57.624Z,235
2017-01-27T11:06:10.302Z,235
2017-01-27T11:07:22.561Z,235
2017-01-27T11:08:35.585Z,235
2017-01-27T11:09:47.856Z,235
2017-01-27T11:11:00.902Z,235
2017-01-27T11:12:13.547Z,235
2017-01-27T11:13:25.819Z,235
2017-01-27T11:14:38.860Z,240
2017-01-27T11:15:51.507Z,235
2017-01-27T11:17:04.534Z,235
2017-01-27T11:18:16.808Z,235
2017-01-27T11:19:29.900Z,235
2017-01-27T11:20:42.943Z,235
2017-01-27T11:21:55.601Z,235
2017-01-27T11:23:08.665Z,235
2017-01-27T11:24:20.929Z,235
2017-01-27T11:25:33.971Z,235
2017-01-27T11:26:45.850Z,235
2017-01-27T11:27:58.872Z,235
2017-01-27T11:29:11.144Z,235
2017-01-27T11:30:23.430Z,235
2017-01-27T11:31:36.463Z,235
2017-01-27T11:32:49.501Z,240
2017-01-27T11:34:02.555Z,235
2017-01-27T11:35:15.189Z,235
2017-01-27T11:36:28.212Z,235
2017-01-27T11:37:41.287Z,235
2017-01-27T11:38:54.333Z,235
2017-01-27T11:40:07.024Z,235
2017-01-27T11:41:20.079Z,235
2017-01-27T11:42:33.100Z,235
2017-01-27T11:43:46.118Z,235
2017-01-27T11:44:58.765Z,235
2017-01-27T11:46:11.429Z,230
2017-01-27T11:47:24.082Z,230
2017-01-27T11:48:37.126Z,230
2017-01-27T11:49:49.374Z,230
2017-01-27T11:51:02.406Z,230
2017-01-27T11:52:15.041Z,230
2017-01-27T11:53:28.079Z,230
2017-01-27T11:54:39.971Z,230
2017-01-27T11:55:52.991Z,230
2017-01-27T11:57:06.013Z,230
2017-01-27T11:58:19.047Z,230
2017-01-27T11:59:32.087Z,230
2017-01-27T12:00:45.132Z,230
2017-01-27T12:01:58.157Z,230
2017-01-27T12:03:10.027Z,230
2017-01-27T12:04:23.071Z,230
2017-01-27T12:05:36.108Z,230
2017-01-27T12:06:49.116Z,230
2017-01-27T12:08:02.156Z,230
2017-01-27T12:09:15.180Z,230
2017-01-27T12:10:28.201Z,230
2017-01-27T12:11:40.869Z,230
2017-01-27T12:12:53.893Z,230
2017-01-27T12:14:06.935Z,230
2017-01-27T12:15:19.187Z,230
2017-01-27T12:16:32.222Z,230
2017-01-27T12:17:44.868Z,225
2017-01-27T12:18:57.915Z,230
2017-01-27T12:20:10.956Z,230
2017-01-27T12:21:23.590Z,230
2017-01-27T12:22:35.882Z,225
2017-01-27T12:23:48.926Z,225
2017-01-27T12:25:01.944Z,225
2017-01-27T12:26:14.970Z,225
2017-01-27T12:27:27.614Z,225
2017-01-27T12:28:39.869Z,225
2017-01-27T12:29:52.906Z,225
2017-01-27T12:31:05.952Z,225
2017-01-27T12:32:18.249Z,225
2017-01-27T12:33:31.296Z,225
2017-01-27T12:34:43.963Z,225
2017-01-27T12:35:56.612Z,225
2017-01-27T12:37:09.656Z,225
2017-01-27T12:38:22.290Z,220
2017-01-27T12:39:35.325Z,220
2017-01-27T12:40:47.594Z,220
2017-01-27T12:42:00.214Z,220
2017-01-27T12:43:13.210Z,220
2017-01-27T12:44:25.858Z,220
2017-01-27T12:45:38.531Z,220
2017-01-27T12:46:51.540Z,215
2017-01-27T12:48:04.571Z,215
2017-01-27T12:49:16.837Z,215
2017-01-27T12:50:29.882Z,215
2017-01-27T12:51:42.925Z,215
2017-01-27T12:52:55.574Z,215
2017-01-27T12:54:08.625Z,215
2017-01-27T12:55:21.651Z,215
2017-01-27T12:56:34.712Z,215
2017-01-27T12:57:47.388Z,215
2017-01-27T12:59:00.465Z,215
2017-01-27T13:00:13.510Z,215
2017-01-27T13:01:26.526Z,210
2017-01-27T13:02:39.563Z,210
2017-01-27T13:03:52.592Z,210
2017-01-27T13:05:04.856Z,210
2017-01-27T13:06:17.505Z,210
2017-01-27T13:07:30.549Z,210
2017-01-27T13:08:43.196Z,210
2017-01-27T13:09:56.250Z,210
2017-01-27T13:11:08.902Z,205
2017-01-27T13:12:21.564Z,205
2017-01-27T13:13:34.570Z,205
2017-01-27T13:14:47.582Z,205
2017-01-27T13:16:00.627Z,205
2017-01-27T13:17:13.264Z,205
2017-01-27T13:18:25.919Z,205
2017-01-27T13:19:38.964Z,205
2017-01-27T13:20:52.006Z,205
2017-01-27T13:22:05.038Z,205
2017-01-27T13:23:18.094Z,200
2017-01-27T13:24:31.126Z,200
2017-01-27T13:25:43.391Z,200
2017-01-27T13:26:56.419Z,200
2017-01-27T13:28:09.078Z,200
2017-01-27T13:29:21.336Z,200
2017-01-27T13:30:34.004Z,200
2017-01-27T13:31:47.053Z,200
2017-01-27T13:33:00.091Z,195
2017-01-27T13:34:13.146Z,195
2017-01-27T13:35:25.788Z,195
2017-01-27T13:36:38.489Z,195
2017-01-27T13:37:51.560Z,195
2017-01-27T13:39:04.224Z,195
2017-01-27T13:40:16.117Z,190
2017-01-27T13:41:29.163Z,190
2017-01-27T13:42:42.231Z,190
2017-01-27T13:43:54.880Z,190
2017-01-27T13:45:07.925Z,190
2017-01-27T13:46:20.974Z,190
2017-01-27T13:47:33.625Z,185
2017-01-27T13:48:46.271Z,185
2017-01-27T13:49:58.910Z,185
2017-01-27T13:51:11.178Z,185
2017-01-27T13:52:24.230Z,180
2017-01-27T13:53:37.276Z,180
2017-01-27T13:54:50.293Z,180
2017-01-27T13:56:03.335Z,180
2017-01-27T13:57:16.011Z,180
2017-01-27T13:58:28.680Z,175
2017-01-27T13:59:41.302Z,175
2017-01-27T14:00:54.323Z,175
2017-01-27T14:02:06.963Z,175
2017-01-27T14:03:19.614Z,170
2017-01-27T14:04:32.632Z,170
2017-01-27T14:05:45.677Z,170
2017-01-27T14:06:58.336Z,170
2017-01-27T14:08:11.376Z,165
2017-01-27T14:09:24.026Z,165
2017-01-27T14:10:37.065Z,165
2017-01-27T14:11:50.162Z,165
2017-01-27T14:13:03.211Z,160
2017-01-27T14:14:15.458Z,160
2017-01-27T14:15:28.083Z,160
2017-01-27T14:16:41.105Z,155
2017-01-27T14:17:53.789Z,155
2017-01-27T14:19:06.447Z,155
2017-01-27T14:20:19.481Z,155
2017-01-27T14:21:31.761Z,150
2017-01-27T14:22:44.421Z,150
2017-01-27T14:23:57.453Z,150
2017-01-27T14:25:09.713Z,145
2017-01-27T14:26:22.716Z,145
2017-01-27T14:27:35.734Z,145
2017-01-27T14:28:48.776Z,140
2017-01-27T14:30:01.422Z,140
2017-01-27T14:31:14.446Z,140
2017-01-27T14:32:30.542Z,135
2017-01-27T14:33:43.588Z,135
2017-01-27T14:34:56.641Z,135
2017-01-27T14:36:08.888Z,130
2017-01-27T14:37:21.557Z,130
2017-01-27T14:38:34.595Z,130
2017-01-27T14:39:47.247Z,125
2017-01-27T14:41:00.276Z,125
2017-01-27T14:42:12.568Z,120
2017-01-27T14:43:25.606Z,120
2017-01-27T14:44:38.555Z,120
2017-01-27T14:45:51.581Z,115
2017-01-27T14:47:04.617Z,115
2017-01-27T14:48:17.645Z,110
2017-01-27T14:49:30.688Z,110
2017-01-27T14:50:42.935Z,110
2017-01-27T14:51:55.954Z,105
2017-01-27T14:53:08.604Z,105
2017-01-27T14:54:21.242Z,100
2017-01-27T14:55:33.921Z,100
2017-01-27T14:56:46.984Z,95
2017-01-27T14:58:00.038Z,95
2017-01-27T14:59:12.670Z,95
2017-01-27T15:00:24.949Z,90
2017-01-27T15:01:37.977Z,90
2017-01-27T15:02:50.997Z,90
2017-01-27T15:04:04.046Z,90
2017-01-27T15:05:16.702Z,85
2017-01-27T15:06:29.748Z,85
2017-01-27T15:07:42.824Z,80
2017-01-27T15:08:55.848Z,80
2017-01-27T15:10:08.486Z,75
2017-01-27T15:11:21.114Z,75
2017-01-27T15:12:34.153Z,70
2017-01-27T15:13:47.180Z,70
2017-01-27T15:15:00.205Z,65
2017-01-27T15:16:12.857Z,65
2017-01-27T15:17:25.898Z,60
2017-01-27T15:18:38.943Z,60
2017-01-27T15:19:51.978Z,55
2017-01-27T15:21:04.626Z,55
2017-01-27T15:22:17.280Z,50
2017-01-27T15:23:30.294Z,50
2017-01-27T15:24:43.337Z,45
2017-01-27T15:25:56.367Z,40
2017-01-27T15:27:09.406Z,40
2017-01-27T15:28:21.674Z,35
2017-01-27T15:29:34.300Z,35
2017-01-27T15:30:47.349Z,30
2017-01-27T15:32:00.368Z,30
2017-01-27T15:33:13.011Z,30
2017-01-27T15:34:26.053Z,25
2017-01-27T15:35:38.700Z,25
2017-01-27T15:36:51.722Z,20
2017-01-27T15:38:04.730Z,20
2017-01-27T15:39:18.015Z,20
2017-01-27T15:40:31.016Z,15
2017-01-27T15:41:44.058Z,15
2017-01-27T15:42:57.083Z,15
2017-01-27T15:44:09.726Z,10
2017-01-27T15:45:22.746Z,10
2017-01-27T15:46:35.399Z,10
2017-01-27T15:47:48.088Z,10
2017-01-27T15:49:01.115Z,5
2017-01-27T15:50:14.136Z,5
2017-01-27T15:51:27.180Z,5
2017-01-27T15:52:40.228Z,5
2017-01-27T15:53:53.266Z,5
2017-01-27T15:55:06.276Z,0
2017-01-27T15:56:19.304Z,0
2017-01-27T15:57:32.328Z,0
2017-01-27T15:58:44.975Z,0
2017-01-27T15:59:57.993Z,0
2017-01-27T16:01:10.623Z,0
2017-01-27T16:02:23.286Z,0
2017-01-27T16:03:35.918Z,0
2017-01-27T16:04:48.979Z,0
2017-01-27T16:06:02.002Z,0
2017-01-27T16:07:14.295Z,0
2017-01-27T16:08:26.951Z,0
2017-01-27T16:09:39.974Z,0
2017-01-27T16:10:53.011Z,0
2017-01-27T16:12:06.053Z,0
2017-01-27T16:13:18.699Z,0
2017-01-27T16:14:31.728Z,0
2017-01-27T16:15:44.353Z,0
2017-01-27T16:16:57.388Z,0
2017-01-27T16:18:09.647Z,0
2017-01-27T16:19:21.540Z,0
2017-01-27T16:20:34.575Z,0
2017-01-27T16:21:47.582Z,0
2017-01-27T16:23:00.621Z,0
2017-01-27T16:24:13.650Z,0
2017-01-27T16:25:26.312Z,0
2017-01-27T16:26:39.338Z,0
2017-01-27T16:27:52.380Z,0
2017-01-27T16:29:05.438Z,0
2017-01-27T16:30:18.480Z,0
2017-01-27T16:31:31.517Z,0
2017-01-27T16:32:44.535Z,0
2017-01-27T16:33:57.182Z,0
2017-01-27T16:35:10.213Z,0
2017-01-27T16:36:23.247Z,0
2017-01-27T16:37:36.269Z,0
2017-01-27T16:38:49.552Z,0
2017-01-27T16:40:02.215Z,0
2017-01-27T16:41:15.264Z,0
2017-01-27T16:42:28.288Z,0
2017-01-27T16:43:41.309Z,0
2017-01-27T16:44:54.356Z,0
2017-01-27T16:46:07.001Z,0
2017-01-27T16:47:19.685Z,0
2017-01-27T16:48:32.729Z,0
2017-01-27T16:49:45.791Z,0
2017-01-27T16:50:58.828Z,0
2017-01-27T16:52:11.525Z,0
2017-01-27T16:53:24.166Z,0
2017-01-27T16:54:36.811Z,0
2017-01-27T16:55:49.873Z,0
2017-01-27T16:57:02.903Z,0
2017-01-27T16:58:15.936Z,0
2017-01-27T16:59:28.973Z,0
2017-01-27T17:00:42.271Z,0
2017-01-27T17:01:55.311Z,0
2017-01-27T17:03:08.337Z,0
2017-01-27T17:04:21.390Z,0
2017-01-27T17:05:34.424Z,0
2017-01-27T17:06:47.445Z,0
2017-01-27T17:08:00.473Z,0
2017-01-27T17:09:13.497Z,0
2017-01-27T17:10:26.547Z,0
2017-01-27T17:11:39.555Z,0
2017-01-27T17:12:52.575Z,0
2017-01-27T17:14:05.582Z,0
2017-01-27T17:15:18.626Z,0
2017-01-27T17:16:31.661Z,0
2017-01-27T17:17:44.696Z,0
2017-01-27T17:18:57.758Z,0
2017-01-27T17:20:10.400Z,0
2017-01-27T17:21:22.651Z,0